createdAt,value
2022-09-11T00:01:51.105Z,13.43
2022-09-11T00:04:19.679Z,13.48
2022-09-11T00:06:50.384Z,13.52
2022-09-11T00:09:18.708Z,13.48
2022-09-11T00:11:47.226Z,13.44
2022-09-11T00:14:15.925Z,13.40
2022-09-11T00:16:47.274Z,13.37
2022-09-11T00:19:19.720Z,13.42
2022-09-11T00:21:56.088Z,13.41
2022-09-11T00:24:24.559Z,13.40
2022-09-11T00:26:52.781Z,13.40
2022-09-11T00:29:21.506Z,13.39
2022-09-11T00:31:50.137Z,13.38
2022-09-11T00:34:19.039Z,13.38
2022-09-11T00:36:48.598Z,13.36
2022-09-11T00:39:18.208Z,13.32
2022-09-11T00:41:46.430Z,13.28
2022-09-11T00:44:21.223Z,13.26
2022-09-11T00:47:02.726Z,13.25
2022-09-11T00:49:47.414Z,13.20
2022-09-11T00:52:21.907Z,13.14
2022-09-11T00:55:07.537Z,13.06
2022-09-11T00:57:42.545Z,13.04
2022-09-11T01:00:13.581Z,13.07
2022-09-11T01:02:47.321Z,13.08
2022-09-11T01:05:19.348Z,13.06
2022-09-11T01:07:48.121Z,12.95
2022-09-11T01:10:16.988Z,12.88
2022-09-11T01:13:01.662Z,12.86
2022-09-11T01:15:29.755Z,12.83
2022-09-11T01:18:10.913Z,12.75
2022-09-11T01:21:13.492Z,12.67
2022-09-11T01:24:10.290Z,12.56
2022-09-11T01:27:27.412Z,12.54
2022-09-11T01:30:02.993Z,12.48
2022-09-11T01:33:03.679Z,12.45
2022-09-11T01:35:51.820Z,12.45
2022-09-11T01:38:29.690Z,12.44
2022-09-11T01:41:27.904Z,12.46
2022-09-11T01:44:07.387Z,12.44
2022-09-11T01:46:42.967Z,12.39
2022-09-11T01:49:19.718Z,12.31
2022-09-11T01:51:52.571Z,12.25
2022-09-11T01:54:27.562Z,12.24
2022-09-11T01:57:06.935Z,12.25
2022-09-11T01:59:48.052Z,12.20
2022-09-11T02:02:24.292Z,12.15
2022-09-11T02:05:01.260Z,12.14
2022-09-11T02:07:42.630Z,12.15
2022-09-11T02:10:18.417Z,12.17
2022-09-11T02:13:01.218Z,12.15
2022-09-11T02:15:42.967Z,12.10
2022-09-11T02:18:27.010Z,12.03
2022-09-11T02:20:56.210Z,11.94
2022-09-11T02:23:24.540Z,11.87
2022-09-11T02:25:53.889Z,11.84
2022-09-11T02:28:22.053Z,11.81
2022-09-11T02:30:50.648Z,11.81
2022-09-11T02:33:33.113Z,11.79
2022-09-11T02:36:20.204Z,11.78
2022-09-11T02:39:00.717Z,11.77
2022-09-11T02:41:55.458Z,11.74
2022-09-11T02:44:56.542Z,11.71
2022-09-11T02:47:47.082Z,11.71
2022-09-11T02:50:55.875Z,11.72
2022-09-11T02:53:32.539Z,11.78
2022-09-11T02:56:29.652Z,11.82
2022-09-11T02:59:04.568Z,11.86
2022-09-11T03:01:53.124Z,11.91
2022-09-11T03:04:24.770Z,11.96
2022-09-11T03:06:55.876Z,11.99
2022-09-11T03:09:24.710Z,11.98
2022-09-11T03:11:56.522Z,11.96
2022-09-11T03:14:24.895Z,11.94
2022-09-11T03:16:53.721Z,11.91
2022-09-11T03:19:22.125Z,11.89
2022-09-11T03:21:51.734Z,11.87
2022-09-11T03:24:22.538Z,11.84
2022-09-11T03:26:52.284Z,11.82
2022-09-11T03:29:22.676Z,11.77
2022-09-11T03:31:53.929Z,11.76
2022-09-11T03:34:23.124Z,11.75
2022-09-11T03:36:52.564Z,11.69
2022-09-11T03:39:21.620Z,11.62
2022-09-11T03:41:52.180Z,11.58
2022-09-11T03:44:22.115Z,11.54
2022-09-11T03:46:52.781Z,11.53
2022-09-11T03:49:20.922Z,11.54
2022-09-11T03:51:50.016Z,11.56
2022-09-11T03:54:21.032Z,11.58
2022-09-11T03:56:50.422Z,11.64
2022-09-11T03:59:20.108Z,11.68
2022-09-11T04:01:50.899Z,11.74
2022-09-11T04:04:21.455Z,11.78
2022-09-11T04:06:49.591Z,11.83
2022-09-11T04:09:19.183Z,11.88
2022-09-11T04:11:49.106Z,11.90
2022-09-11T04:14:25.626Z,11.95
2022-09-11T04:16:55.636Z,12.03
2022-09-11T04:19:24.477Z,12.15
2022-09-11T04:21:53.044Z,12.35
2022-09-11T04:24:23.529Z,12.60
2022-09-11T04:26:56.304Z,12.86
2022-09-11T04:29:29.797Z,13.13
2022-09-11T04:31:59.589Z,13.40
2022-09-11T04:34:32.254Z,13.65
2022-09-11T04:37:01.288Z,13.95
2022-09-11T04:39:32.080Z,14.25
2022-09-11T04:42:02.229Z,14.50
2022-09-11T04:44:32.661Z,14.70
2022-09-11T04:47:01.903Z,14.89
2022-09-11T04:49:33.610Z,14.97
2022-09-11T04:52:07.113Z,15.13
2022-09-11T04:54:38.683Z,15.32
2022-09-11T04:57:14.648Z,15.52
2022-09-11T04:59:48.883Z,15.80
2022-09-11T05:02:20.689Z,16.05
2022-09-11T05:04:52.298Z,16.24
2022-09-11T05:07:23.922Z,16.51
2022-09-11T12:56:38.295Z,23.43
2022-09-11T14:23:21.353Z,23.23
2022-09-11T14:26:35.741Z,23.23
2022-09-11T14:29:26.205Z,23.10
2022-09-11T14:32:16.114Z,23.07
2022-09-11T14:34:49.486Z,23.08
2022-09-11T14:37:21.243Z,23.00
2022-09-11T14:39:59.632Z,22.84
2022-09-11T14:42:39.031Z,22.67
2022-09-11T14:45:19.196Z,22.49
2022-09-11T14:47:53.137Z,22.43
2022-09-11T14:50:23.702Z,22.34
2022-09-11T14:52:53.696Z,22.23
2022-09-11T14:55:24.578Z,22.10
2022-09-11T14:57:58.062Z,21.97
2022-09-11T15:00:28.276Z,21.85
2022-09-11T15:02:57.693Z,21.73
2022-09-11T15:05:28.510Z,21.58
2022-09-11T15:08:00.492Z,21.44
2022-09-11T15:10:30.509Z,21.25
2022-09-11T15:13:00.123Z,21.10
2022-09-11T15:15:30.057Z,21.06
2022-09-11T15:18:06.110Z,21.03
2022-09-11T15:20:37.269Z,21.06
2022-09-11T15:23:06.924Z,21.06
2022-09-11T15:25:36.484Z,21.05
2022-09-11T15:28:13.622Z,21.02
2022-09-11T15:30:46.813Z,20.97
2022-09-11T15:33:18.638Z,20.88
2022-09-11T15:35:48.304Z,20.81
2022-09-11T15:38:21.226Z,20.76
2022-09-11T15:40:58.721Z,20.68
2022-09-11T15:43:39.337Z,20.56
2022-09-11T15:46:15.812Z,20.48
2022-09-11T15:48:45.006Z,20.37
2022-09-11T15:51:18.475Z,20.30
2022-09-11T15:53:49.028Z,20.24
2022-09-11T15:56:23.947Z,20.16
2022-09-11T15:58:59.783Z,20.05
2022-09-11T16:01:33.226Z,19.99
2022-09-11T16:04:05.659Z,19.96
2022-09-11T16:06:40.289Z,19.94
2022-09-11T16:09:14.126Z,19.91
2022-09-11T16:11:47.445Z,19.89
2022-09-11T16:14:31.981Z,19.84
2022-09-11T16:17:02.585Z,19.76
2022-09-11T16:19:35.767Z,19.64
2022-09-11T16:22:07.315Z,19.48
2022-09-11T16:24:38.006Z,19.35
2022-09-11T16:27:10.034Z,19.26
2022-09-11T16:32:29.509Z,18.98
2022-09-11T16:34:59.884Z,18.85
2022-09-11T16:37:37.481Z,18.75
2022-09-11T16:40:08.667Z,18.61
2022-09-11T16:42:38.304Z,18.49
2022-09-11T16:45:09.625Z,18.36
2022-09-11T16:47:38.223Z,18.22
2022-09-11T16:50:08.700Z,18.14
2022-09-11T16:52:39.504Z,18.09
2022-09-11T16:55:11.035Z,18.05
2022-09-11T16:57:44.130Z,18.06
2022-09-11T17:00:15.754Z,18.05
2022-09-11T17:02:46.832Z,18.06
2022-09-11T17:05:17.724Z,18.06
2022-09-11T17:07:48.146Z,18.03
2022-09-11T17:10:17.403Z,17.99
2022-09-11T17:12:45.978Z,17.94
2022-09-11T17:15:17.789Z,17.91
2022-09-11T17:17:49.957Z,17.87
2022-09-11T17:20:18.507Z,17.85
2022-09-11T17:22:47.030Z,17.79
2022-09-11T17:25:15.835Z,17.79
2022-09-11T17:27:46.906Z,17.74
2022-09-11T17:30:18.971Z,17.67
2022-09-11T17:32:50.139Z,17.62
2022-09-11T17:35:20.582Z,17.57
2022-09-11T17:37:51.951Z,17.57
2022-09-11T17:40:26.557Z,17.56
2022-09-11T17:42:56.093Z,17.51
2022-09-11T17:45:25.757Z,17.46
2022-09-11T17:47:55.769Z,17.40
2022-09-11T17:50:24.719Z,17.33
2022-09-11T17:52:55.253Z,17.25
2022-09-11T17:55:24.943Z,17.18
2022-09-11T17:57:54.416Z,17.14
2022-09-11T18:00:23.447Z,17.10
2022-09-11T18:02:54.237Z,17.08
2022-09-11T18:05:22.776Z,17.07
2022-09-11T18:07:51.439Z,17.05
2022-09-11T18:10:21.525Z,17.04
2022-09-11T18:12:52.941Z,17.01
2022-09-11T18:15:21.920Z,17.05
2022-09-11T18:17:54.077Z,17.07
2022-09-11T18:20:25.149Z,17.05
2022-09-11T18:22:54.859Z,17.03
2022-09-11T18:25:25.373Z,16.97
2022-09-11T18:27:55.014Z,16.84
2022-09-11T18:30:24.171Z,16.77
2022-09-11T18:32:53.783Z,16.70
2022-09-11T18:35:23.228Z,16.62
2022-09-11T18:37:55.449Z,16.56
2022-09-11T18:40:23.872Z,16.52
2022-09-11T18:42:52.531Z,16.49
2022-09-11T18:45:21.045Z,16.44
2022-09-11T18:47:55.317Z,16.38
2022-09-11T18:50:24.473Z,16.34
2022-09-11T18:52:53.869Z,16.27
2022-09-11T18:55:23.133Z,16.27
2022-09-11T18:57:51.660Z,16.24
2022-09-11T19:00:21.240Z,16.20
2022-09-11T19:02:52.773Z,16.20
2022-09-11T19:05:22.200Z,16.22
2022-09-11T19:07:51.011Z,16.22
2022-09-11T19:10:19.536Z,16.20
2022-09-11T19:12:49.532Z,16.23
2022-09-11T19:15:18.191Z,16.24
2022-09-11T19:17:47.976Z,16.26
2022-09-11T19:20:18.044Z,16.27
2022-09-11T19:22:47.688Z,16.28
2022-09-11T19:25:16.200Z,16.31
2022-09-11T19:27:45.125Z,16.32
2022-09-11T19:30:14.358Z,16.30
2022-09-11T19:32:45.563Z,16.29
2022-09-11T19:35:14.199Z,16.27
2022-09-11T19:37:44.296Z,16.12
2022-09-11T19:40:14.464Z,15.97
2022-09-11T19:42:45.519Z,15.91
2022-09-11T19:45:13.847Z,15.77
2022-09-11T19:47:42.909Z,15.66
2022-09-11T19:50:13.101Z,15.58
2022-09-11T19:52:41.329Z,15.53
2022-09-11T19:55:12.761Z,15.43
2022-09-11T19:57:43.286Z,15.36
2022-09-11T20:00:12.853Z,15.29
2022-09-11T20:02:41.223Z,15.27
2022-09-11T20:05:10.034Z,15.27
2022-09-11T20:07:38.450Z,15.28
2022-09-11T20:10:08.394Z,15.32
2022-09-11T20:12:37.947Z,15.35
2022-09-11T20:15:08.032Z,15.40
2022-09-11T20:17:37.318Z,15.47
2022-09-11T20:20:07.300Z,15.52
2022-09-11T20:22:36.184Z,15.56
2022-09-11T20:25:06.603Z,15.56
2022-09-11T20:27:35.589Z,15.57
2022-09-11T20:30:06.735Z,15.57
2022-09-11T20:32:39.207Z,15.53
2022-09-11T20:35:09.663Z,15.54
2022-09-11T20:37:38.995Z,15.57
2022-09-11T20:40:09.360Z,15.59
2022-09-11T20:42:39.897Z,15.60
2022-09-11T20:45:08.874Z,15.61
2022-09-11T20:47:37.702Z,15.52
2022-09-11T20:50:07.482Z,15.42
2022-09-11T20:52:39.344Z,15.41
2022-09-11T20:55:09.329Z,15.44
2022-09-11T20:57:37.671Z,15.47
2022-09-11T21:00:07.075Z,15.52
2022-09-11T21:02:36.544Z,15.56
2022-09-11T21:05:05.347Z,15.61
2022-09-11T21:07:34.820Z,15.65
2022-09-11T21:10:03.282Z,15.67
2022-09-11T21:12:31.751Z,15.61
2022-09-11T21:15:00.393Z,15.56
2022-09-11T21:17:28.801Z,15.54
2022-09-11T21:19:58.099Z,15.53
2022-09-11T21:22:27.285Z,15.53
2022-09-11T21:24:55.660Z,15.50
2022-09-11T21:27:24.264Z,15.46
2022-09-11T21:29:52.807Z,15.43
2022-09-11T21:32:21.794Z,15.42
2022-09-11T21:34:50.451Z,15.36
2022-09-11T21:37:21.732Z,15.28
2022-09-11T21:39:50.943Z,15.27
2022-09-11T21:42:20.262Z,15.24
2022-09-11T21:44:49.948Z,15.21
2022-09-11T21:47:18.898Z,15.15
2022-09-11T21:49:47.547Z,15.10
2022-09-11T21:52:15.859Z,15.00
2022-09-11T21:54:45.530Z,14.93
2022-09-11T21:57:15.461Z,14.90
2022-09-11T21:59:43.664Z,14.77
2022-09-11T22:02:13.143Z,14.73
2022-09-11T22:04:43.568Z,14.71
2022-09-11T22:07:12.474Z,14.66
2022-09-11T22:09:41.245Z,14.57
2022-09-11T22:12:10.794Z,14.54
2022-09-11T22:14:39.867Z,14.50
2022-09-11T22:17:08.068Z,14.49
2022-09-11T22:19:36.359Z,14.51
2022-09-11T22:22:06.949Z,14.54
2022-09-11T22:24:35.238Z,14.60
2022-09-11T22:27:06.881Z,14.61
2022-09-11T22:29:35.519Z,14.62
2022-09-11T22:32:07.676Z,14.63
2022-09-11T22:34:36.874Z,14.64
2022-09-11T22:37:06.413Z,14.71
2022-09-11T22:39:34.612Z,14.78
2022-09-11T22:42:05.161Z,14.84
2022-09-11T22:44:34.363Z,14.90
2022-09-11T22:47:04.653Z,14.90
2022-09-11T22:49:33.380Z,14.91
2022-09-11T22:52:01.937Z,14.94
2022-09-11T22:54:30.246Z,14.98
2022-09-11T22:56:58.772Z,14.97
2022-09-11T22:59:27.783Z,14.98
2022-09-11T23:01:56.835Z,14.98
2022-09-11T23:04:26.867Z,14.98
2022-09-11T23:07:15.047Z,14.97
2022-09-11T23:09:44.892Z,14.99
2022-09-11T23:12:15.296Z,15.02
2022-09-11T23:14:44.081Z,15.03
2022-09-11T23:17:12.761Z,15.04
2022-09-11T23:19:41.352Z,15.05
2022-09-11T23:22:09.695Z,15.02
2022-09-11T23:24:38.731Z,15.03
2022-09-11T23:27:07.804Z,15.05
2022-09-11T23:29:37.224Z,15.09
2022-09-11T23:32:05.720Z,15.10
2022-09-11T23:34:35.105Z,15.12
2022-09-11T23:37:03.687Z,15.11
2022-09-11T23:39:32.106Z,15.13
2022-09-11T23:42:03.019Z,15.14
2022-09-11T23:44:32.367Z,15.13
2022-09-11T23:47:02.433Z,15.13
2022-09-11T23:49:35.504Z,15.13
2022-09-11T23:52:06.413Z,15.12
2022-09-11T23:54:36.063Z,15.17
2022-09-11T23:57:04.582Z,15.23
2022-09-11T23:59:35.837Z,15.27
